createdAt,value
2023-11-12T00:00:04.626Z,100139.34
2023-11-12T00:00:55.991Z,100140.97
2023-11-12T00:01:50.682Z,100140.03
2023-11-12T00:02:42.104Z,100139.19
2023-11-12T00:03:33.633Z,100135.59
2023-11-12T00:04:26.094Z,100138.97
2023-11-12T00:05:20.596Z,100131.34
2023-11-12T00:06:12.976Z,100134.66
2023-11-12T00:07:04.613Z,100132.84
2023-11-12T00:07:56.078Z,100131.84
2023-11-12T00:08:47.713Z,100129.25
2023-11-12T00:09:40.791Z,100121.53
2023-11-12T00:10:34.036Z,100129.13
2023-11-12T00:11:26.483Z,100127.31
2023-11-12T00:12:19.705Z,100128.19
2023-11-12T00:13:11.398Z,100127.25
2023-11-12T00:14:03.413Z,100122.03
2023-11-12T00:14:55.036Z,100122.81
2023-11-12T00:15:46.843Z,100125.38
2023-11-12T00:16:38.634Z,100123.66
2023-11-12T00:17:30.057Z,100125.38
2023-11-12T00:18:21.531Z,100123.53
2023-11-12T00:19:13.124Z,100127.81
2023-11-12T00:20:06.773Z,100124.22
2023-11-12T00:20:58.716Z,100124.22
2023-11-12T00:21:50.213Z,100123.25
2023-11-12T00:22:42.154Z,100127.34
2023-11-12T00:23:37.224Z,100126.41
2023-11-12T00:24:29.343Z,100121.97
2023-11-12T00:25:20.951Z,100131.19
2023-11-12T00:26:12.375Z,100128.59
2023-11-12T00:27:06.799Z,100129.22
2023-11-12T00:27:58.333Z,100128.25
2023-11-12T00:28:51.285Z,100125.66
2023-11-12T00:29:42.685Z,100127.28
2023-11-12T00:30:34.064Z,100123.59
2023-11-12T00:31:25.490Z,100125.31
2023-11-12T00:32:17.088Z,100121.78
2023-11-12T00:33:09.779Z,100127.78
2023-11-12T00:34:01.230Z,100122.47
2023-11-12T00:34:53.973Z,100122.38
2023-11-12T00:35:45.386Z,100124.97
2023-11-12T00:36:39.612Z,100122.34
2023-11-12T00:37:31.032Z,100122.25
2023-11-12T00:38:22.833Z,100125.50
2023-11-12T00:39:14.236Z,100125.50
2023-11-12T00:40:07.423Z,100122.88
2023-11-12T00:40:59.099Z,100120.38
2023-11-12T00:41:50.530Z,100121.13
2023-11-12T00:42:41.961Z,100117.75
2023-11-12T00:43:35.137Z,100122.00
2023-11-12T00:44:26.811Z,100121.06
2023-11-12T00:45:18.525Z,100125.25
2023-11-12T00:46:10.036Z,100123.47
2023-11-12T00:47:01.503Z,100116.59
2023-11-12T00:47:53.084Z,100118.25
2023-11-12T00:48:45.301Z,100115.66
2023-11-12T00:49:36.751Z,100118.09
2023-11-12T00:50:28.239Z,100111.06
2023-11-12T00:51:19.597Z,100113.66
2023-11-12T00:52:10.988Z,100117.72
2023-11-12T00:53:02.429Z,100110.78
2023-11-12T00:53:54.149Z,100114.22
2023-11-12T00:54:46.534Z,100121.19
2023-11-12T00:55:37.944Z,100112.59
2023-11-12T00:56:29.652Z,100103.09
2023-11-12T00:57:23.373Z,100119.31
2023-11-12T00:58:14.792Z,100111.50
2023-11-12T00:59:06.605Z,100113.13
2023-11-12T00:59:59.295Z,100109.75
2023-11-12T01:00:50.704Z,100106.25
2023-11-12T01:01:42.208Z,100105.22
2023-11-12T01:02:33.792Z,100109.53
2023-11-12T01:03:29.457Z,100108.69
2023-11-12T01:04:20.895Z,100106.09
2023-11-12T01:05:13.191Z,100105.97
2023-11-12T01:06:05.048Z,100102.50
2023-11-12T01:06:56.518Z,100106.69
2023-11-12T01:07:47.965Z,100110.03
2023-11-12T01:08:40.545Z,100107.47
2023-11-12T01:09:32.004Z,100104.00
2023-11-12T01:10:23.422Z,100099.66
2023-11-12T01:11:16.290Z,100100.56
2023-11-12T01:12:10.072Z,100103.06
2023-11-12T01:13:01.677Z,100104.63
2023-11-12T01:13:53.694Z,100103.59
2023-11-12T01:14:45.199Z,100105.34
2023-11-12T01:15:36.722Z,100108.84
2023-11-12T01:16:28.430Z,100095.97
2023-11-12T01:17:19.909Z,100095.88
2023-11-12T01:18:11.425Z,100103.59
2023-11-12T01:19:03.236Z,100106.97
2023-11-12T01:19:54.883Z,100101.59
2023-11-12T01:20:46.370Z,100098.75
2023-11-12T01:21:37.895Z,100102.34
2023-11-12T01:22:29.428Z,100095.47
2023-11-12T01:23:20.919Z,100096.34
2023-11-12T01:24:12.469Z,100097.00
2023-11-12T01:25:04.111Z,100096.19
2023-11-12T01:25:55.884Z,100104.84
2023-11-12T01:26:47.308Z,100103.16
2023-11-12T01:27:38.869Z,100096.16
2023-11-12T01:28:35.234Z,100095.19
2023-11-12T01:29:26.694Z,100092.63
2023-11-12T01:30:18.320Z,100096.28
2023-11-12T01:31:09.833Z,100097.00
2023-11-12T01:32:02.016Z,100099.56
2023-11-12T01:32:54.658Z,100101.31
2023-11-12T01:33:46.171Z,100094.44
2023-11-12T01:34:37.555Z,100089.31
2023-11-12T01:35:28.924Z,100100.59
2023-11-12T01:36:20.849Z,100098.91
2023-11-12T01:37:12.323Z,100096.34
2023-11-12T01:38:04.060Z,100105.88
2023-11-12T01:38:56.567Z,100099.03
2023-11-12T01:39:48.860Z,100106.16
2023-11-12T01:40:42.230Z,100096.78
2023-11-12T01:41:33.676Z,100104.63
2023-11-12T01:42:26.303Z,100105.63
2023-11-12T01:43:19.679Z,100102.19
2023-11-12T01:44:11.063Z,100102.38
2023-11-12T01:45:02.617Z,100099.81
2023-11-12T01:45:54.500Z,100101.50
2023-11-12T01:46:46.666Z,100096.38
2023-11-12T01:47:40.265Z,100091.25
2023-11-12T01:48:32.745Z,100090.22
2023-11-12T01:49:24.457Z,100093.53
2023-11-12T01:50:16.401Z,100093.59
2023-11-12T01:51:08.038Z,100091.91
2023-11-12T01:51:59.581Z,100097.09
2023-11-12T01:52:51.080Z,100096.25
2023-11-12T01:53:42.709Z,100095.34
2023-11-12T01:54:38.855Z,100095.34
2023-11-12T01:55:32.233Z,100092.06
2023-11-12T01:56:23.894Z,100091.25
2023-11-12T01:57:15.715Z,100085.44
2023-11-12T01:58:10.495Z,100090.50
2023-11-12T01:59:04.987Z,100087.91
2023-11-12T01:59:57.125Z,100089.63
2023-11-12T02:00:49.900Z,100091.38
2023-11-12T02:01:43.252Z,100079.28
2023-11-12T02:02:37.268Z,100084.50
2023-11-12T02:03:30.887Z,100087.78
2023-11-12T02:04:24.298Z,100077.59
2023-11-12T02:05:16.629Z,100083.53
2023-11-12T02:06:08.159Z,100081.78
2023-11-12T02:07:02.842Z,100079.94
2023-11-12T02:07:54.758Z,100076.66
2023-11-12T02:08:46.265Z,100079.13
2023-11-12T02:09:38.148Z,100079.22
2023-11-12T02:10:36.418Z,100083.31
2023-11-12T02:11:28.022Z,100079.81
2023-11-12T02:12:19.800Z,100080.56
2023-11-12T02:13:11.797Z,100077.91
2023-11-12T02:14:03.260Z,100072.75
2023-11-12T02:14:54.830Z,100079.31
2023-11-12T02:15:48.099Z,100082.69
2023-11-12T02:16:40.618Z,100077.56
2023-11-12T02:17:33.103Z,100078.38
2023-11-12T02:18:24.566Z,100075.75
2023-11-12T02:19:26.048Z,100079.19
2023-11-12T02:20:17.575Z,100075.09
2023-11-12T02:21:09.082Z,100075.09
2023-11-12T02:22:00.506Z,100076.69
2023-11-12T02:22:52.076Z,100071.47
2023-11-12T02:23:43.753Z,100082.56
2023-11-12T02:24:35.792Z,100074.94
2023-11-12T02:25:27.241Z,100071.47
2023-11-12T02:26:19.221Z,100077.50
2023-11-12T02:27:10.673Z,100074.19
2023-11-12T02:28:02.412Z,100073.38
2023-11-12T02:28:54.371Z,100072.50
2023-11-12T02:29:52.153Z,100070.75
2023-11-12T02:30:44.232Z,100077.66
2023-11-12T02:31:35.715Z,100081.75
2023-11-12T02:32:31.514Z,100077.38
2023-11-12T02:33:28.168Z,100074.00
2023-11-12T02:34:19.743Z,100078.22
2023-11-12T02:35:11.283Z,100075.53
2023-11-12T02:36:04.529Z,100077.22
2023-11-12T02:36:56.014Z,100079.00
2023-11-12T02:37:47.476Z,100084.25
2023-11-12T02:38:40.426Z,100080.00
2023-11-12T02:39:32.184Z,100084.41
2023-11-12T02:40:24.015Z,100081.06
2023-11-12T02:41:15.484Z,100085.34
2023-11-12T02:42:08.801Z,100085.56
2023-11-12T02:43:00.256Z,100084.63
2023-11-12T02:43:51.635Z,100087.47
2023-11-12T02:44:43.119Z,100086.97
2023-11-12T02:45:34.534Z,100092.25
2023-11-12T02:46:26.038Z,100091.66
2023-11-12T02:47:18.110Z,100088.41
2023-11-12T02:48:10.066Z,100078.00
2023-11-12T02:49:33.240Z,100084.22
2023-11-12T02:50:32.131Z,100088.50
2023-11-12T02:51:23.649Z,100078.94
2023-11-12T02:52:15.304Z,100075.56
2023-11-12T02:53:08.308Z,100076.50
2023-11-12T02:53:59.799Z,100077.31
2023-11-12T02:54:51.489Z,100085.16
2023-11-12T02:55:43.594Z,100080.84
2023-11-12T02:56:35.710Z,100081.72
2023-11-12T02:57:28.505Z,100080.16
2023-11-12T02:58:19.960Z,100080.16
2023-11-12T02:59:11.496Z,100078.47
2023-11-12T03:00:03.387Z,100076.78
2023-11-12T03:00:54.901Z,100083.63
2023-11-12T03:01:46.303Z,100080.38
2023-11-12T03:02:37.869Z,100079.44
2023-11-12T03:03:29.413Z,100081.19
2023-11-12T03:04:21.427Z,100085.38
2023-11-12T03:05:15.223Z,100080.38
2023-11-12T03:06:06.874Z,100077.81
2023-11-12T03:06:58.400Z,100079.44
2023-11-12T03:07:49.896Z,100072.66
2023-11-12T03:08:41.927Z,100081.31
2023-11-12T03:09:34.468Z,100079.59
2023-11-12T03:10:26.192Z,100083.13
2023-11-12T03:11:17.685Z,100077.38
2023-11-12T03:12:09.270Z,100083.56
2023-11-12T03:13:00.710Z,100077.53
2023-11-12T03:13:52.894Z,100074.34
2023-11-12T03:14:44.557Z,100085.69
2023-11-12T03:15:36.110Z,100078.16
2023-11-12T03:16:28.162Z,100077.44
2023-11-12T03:17:20.586Z,100077.56
2023-11-12T03:18:12.050Z,100073.25
2023-11-12T03:19:04.049Z,100074.25
2023-11-12T03:19:55.944Z,100071.81
2023-11-12T03:20:47.528Z,100071.03
2023-11-12T03:21:38.951Z,100072.75
2023-11-12T03:22:32.462Z,100072.75
2023-11-12T03:23:23.853Z,100072.88
2023-11-12T03:24:15.303Z,100077.94
2023-11-12T03:25:07.028Z,100074.63
2023-11-12T03:25:58.733Z,100069.63
2023-11-12T03:26:54.628Z,100075.69
2023-11-12T03:27:46.100Z,100073.19
2023-11-12T03:28:37.498Z,100074.16
2023-11-12T03:29:29.517Z,100074.19
2023-11-12T03:30:20.987Z,100072.53
2023-11-12T03:31:12.422Z,100070.06
2023-11-12T03:32:04.021Z,100072.78
2023-11-12T03:32:55.444Z,100066.81
2023-11-12T03:33:47.355Z,100068.63
2023-11-12T03:34:38.823Z,100066.97
2023-11-12T03:35:30.236Z,100067.91
2023-11-12T03:36:22.257Z,100070.56
2023-11-12T03:37:14.448Z,100068.94
2023-11-12T03:38:06.108Z,100065.53
2023-11-12T03:38:57.590Z,100062.22
2023-11-12T03:39:50.531Z,100070.94
2023-11-12T03:40:41.923Z,100069.31
2023-11-12T03:41:33.412Z,100064.94
2023-11-12T03:42:25.603Z,100066.72
2023-11-12T03:43:17.541Z,100065.16
2023-11-12T03:44:08.912Z,100069.38
2023-11-12T03:45:00.639Z,100063.41
2023-11-12T03:45:52.073Z,100060.84
2023-11-12T03:46:43.539Z,100063.34
2023-11-12T03:47:34.945Z,100066.03
2023-11-12T03:48:26.430Z,100063.53
2023-11-12T03:49:17.971Z,100070.34
2023-11-12T03:50:09.532Z,100068.72
2023-11-12T03:51:00.915Z,100065.16
2023-11-12T03:51:53.217Z,100063.41
2023-11-12T03:52:44.652Z,100066.09
2023-11-12T03:53:36.120Z,100070.44
2023-11-12T03:54:27.601Z,100073.06
2023-11-12T03:55:19.057Z,100067.09
2023-11-12T03:56:10.725Z,100066.16
2023-11-12T03:57:02.272Z,100064.53
2023-11-12T03:57:53.823Z,100060.16
2023-11-12T03:58:46.047Z,100067.03
2023-11-12T03:59:37.707Z,100057.47
2023-11-12T04:00:29.847Z,100063.53
2023-11-12T04:01:21.263Z,100062.59
2023-11-12T04:02:12.745Z,100067.78
2023-11-12T04:03:04.591Z,100060.97
2023-11-12T04:03:56.110Z,100062.53
2023-11-12T04:04:47.764Z,100066.72
2023-11-12T04:05:39.174Z,100066.59
2023-11-12T04:06:31.150Z,100062.22
2023-11-12T04:07:24.455Z,100059.47
2023-11-12T04:08:15.922Z,100061.16
2023-11-12T04:09:07.715Z,100053.38
2023-11-12T04:09:59.275Z,100059.28
2023-11-12T04:10:50.673Z,100051.44
2023-11-12T04:11:42.841Z,100058.28
2023-11-12T04:12:34.433Z,100051.38
2023-11-12T04:13:25.907Z,100053.84
2023-11-12T04:14:17.430Z,100059.91
2023-11-12T04:15:09.392Z,100051.28
2023-11-12T04:16:01.228Z,100049.44
2023-11-12T04:16:52.815Z,100048.56
2023-11-12T04:17:44.267Z,100049.38
2023-11-12T04:18:37.173Z,100050.19
2023-11-12T04:19:28.570Z,100048.38
2023-11-12T04:20:20.116Z,100043.31
2023-11-12T04:21:11.793Z,100048.56
2023-11-12T04:22:03.459Z,100046.94
2023-11-12T04:22:55.026Z,100042.63
2023-11-12T04:23:48.968Z,100040.91
2023-11-12T04:24:40.509Z,100037.63
2023-11-12T04:25:31.978Z,100038.69
2023-11-12T04:26:23.722Z,100039.63
2023-11-12T04:27:15.275Z,100036.34
2023-11-12T04:28:06.666Z,100033.75
2023-11-12T04:28:58.659Z,100036.34
2023-11-12T04:29:50.171Z,100039.72
2023-11-12T04:30:41.604Z,100038.94
2023-11-12T04:31:33.640Z,100035.63
2023-11-12T04:32:25.176Z,100030.56
2023-11-12T04:33:16.613Z,100035.72
2023-11-12T04:34:08.197Z,100034.81
2023-11-12T04:34:59.635Z,100031.34
2023-11-12T04:35:51.392Z,100040.03
2023-11-12T04:36:45.317Z,100035.75
2023-11-12T04:37:36.994Z,100039.13
2023-11-12T04:38:28.615Z,100039.13
2023-11-12T04:39:20.212Z,100040.06
2023-11-12T04:40:14.188Z,100035.72
2023-11-12T04:41:05.583Z,100040.03
2023-11-12T04:41:56.990Z,100054.78
2023-11-12T04:42:49.326Z,100045.22
2023-11-12T04:43:43.434Z,100052.25
2023-11-12T04:44:34.814Z,100052.31
2023-11-12T04:45:26.201Z,100049.75
2023-11-12T04:46:20.244Z,100054.94
2023-11-12T04:47:11.733Z,100045.47
2023-11-12T04:48:04.196Z,100056.56
2023-11-12T04:48:55.601Z,100057.47
2023-11-12T04:49:47.052Z,100050.69
2023-11-12T04:50:39.631Z,100052.34
2023-11-12T04:51:34.118Z,100048.16
2023-11-12T04:52:25.618Z,100049.09
2023-11-12T04:53:17.600Z,100050.84
2023-11-12T04:54:09.080Z,100052.56
2023-11-12T04:55:00.494Z,100047.44
2023-11-12T04:55:51.905Z,100051.66
2023-11-12T04:56:47.394Z,100053.41
2023-11-12T04:57:39.481Z,100048.16
2023-11-12T04:58:30.955Z,100054.88
2023-11-12T04:59:23.012Z,100051.41
2023-11-12T05:00:14.687Z,100052.91
2023-11-12T05:01:07.552Z,100049.31
2023-11-12T05:02:00.654Z,100050.88
2023-11-12T05:02:52.884Z,100049.81
2023-11-12T05:03:44.304Z,100053.19
2023-11-12T05:04:35.856Z,100047.00
2023-11-12T05:05:27.698Z,100041.59
2023-11-12T05:06:19.155Z,100048.25
2023-11-12T05:07:10.602Z,100045.47
2023-11-12T05:08:01.960Z,100050.50
2023-11-12T05:08:55.738Z,100053.69
2023-11-12T05:09:47.281Z,100052.63
2023-11-12T05:10:45.038Z,100052.47
2023-11-12T05:11:40.547Z,100050.47
2023-11-12T05:12:32.219Z,100051.34
2023-11-12T05:13:23.697Z,100054.66
2023-11-12T05:14:15.253Z,100045.97
2023-11-12T05:15:08.106Z,100048.44
2023-11-12T05:15:59.652Z,100047.50
2023-11-12T05:16:51.067Z,100049.94
2023-11-12T05:17:42.498Z,100046.44
2023-11-12T05:18:33.971Z,100057.41
2023-11-12T05:19:25.479Z,100054.81
2023-11-12T05:20:17.027Z,100054.81
2023-11-12T05:21:08.535Z,100052.94
2023-11-12T05:22:00.062Z,100055.28
2023-11-12T05:22:53.787Z,100058.53
2023-11-12T05:23:45.234Z,100052.47
2023-11-12T05:24:38.353Z,100058.53
2023-11-12T05:25:30.075Z,100054.03
2023-11-12T05:26:22.143Z,100054.63
2023-11-12T05:27:13.557Z,100058.00
2023-11-12T05:28:06.739Z,100063.88
2023-11-12T05:28:58.144Z,100056.97
2023-11-12T05:29:49.886Z,100062.13
2023-11-12T05:30:41.347Z,100063.69
2023-11-12T05:31:35.869Z,100066.94
2023-11-12T05:32:27.450Z,100063.47
2023-11-12T05:33:18.890Z,100059.09
2023-11-12T05:34:11.136Z,100062.53
2023-11-12T05:35:02.533Z,100066.03
2023-11-12T05:35:54.308Z,100066.03
2023-11-12T05:36:45.795Z,100066.94
2023-11-12T05:37:37.190Z,100061.78
2023-11-12T05:38:28.598Z,100066.97
2023-11-12T05:39:20.087Z,100072.06
2023-11-12T05:40:13.300Z,100069.41
2023-11-12T05:41:04.688Z,100067.59
2023-11-12T05:41:56.059Z,100075.22
2023-11-12T05:42:47.821Z,100069.94
2023-11-12T05:43:39.263Z,100076.75
2023-11-12T05:44:30.891Z,100083.44
2023-11-12T05:45:22.447Z,100077.22
2023-11-12T05:46:14.569Z,100074.72
2023-11-12T05:47:06.234Z,100076.34
2023-11-12T05:47:58.556Z,100074.44
2023-11-12T05:48:50.047Z,100075.19
2023-11-12T05:49:41.440Z,100076.06
2023-11-12T05:50:32.847Z,100077.53
2023-11-12T05:51:24.240Z,100077.41
2023-11-12T05:52:15.670Z,100073.88
2023-11-12T05:53:07.117Z,100077.31
2023-11-12T05:53:58.490Z,100074.59
2023-11-12T05:54:49.991Z,100079.75
2023-11-12T05:55:41.565Z,100079.53
2023-11-12T05:56:33.375Z,100074.31
2023-11-12T05:57:24.905Z,100083.72
2023-11-12T05:58:16.320Z,100077.69
2023-11-12T05:59:07.724Z,100079.47
2023-11-12T05:59:59.118Z,100081.00
2023-11-12T06:00:55.825Z,100081.06
2023-11-12T06:01:47.266Z,100082.53
2023-11-12T06:02:39.408Z,100076.41
2023-11-12T06:03:31.092Z,100077.34
2023-11-12T06:04:22.695Z,100075.59
2023-11-12T06:05:14.245Z,100075.44
2023-11-12T06:06:05.770Z,100072.94
2023-11-12T06:06:57.187Z,100076.47
2023-11-12T06:07:48.584Z,100074.78
2023-11-12T06:08:39.998Z,100077.41
2023-11-12T06:09:31.408Z,100079.94
2023-11-12T06:10:22.927Z,100072.22
2023-11-12T06:11:15.048Z,100082.53
2023-11-12T06:12:08.839Z,100080.06
2023-11-12T06:13:00.239Z,100080.78
2023-11-12T06:13:51.736Z,100083.22
2023-11-12T06:14:44.851Z,100077.22
2023-11-12T06:15:37.507Z,100082.25
2023-11-12T06:16:29.343Z,100083.88
2023-11-12T06:17:20.774Z,100086.44
2023-11-12T06:18:12.242Z,100088.91
2023-11-12T06:19:03.807Z,100087.97
2023-11-12T06:19:55.287Z,100085.25
2023-11-12T06:20:47.130Z,100086.88
2023-11-12T06:21:38.685Z,100086.88
2023-11-12T06:22:30.170Z,100087.66
2023-11-12T06:23:21.548Z,100093.59
2023-11-12T06:24:13.002Z,100088.41
2023-11-12T06:25:04.817Z,100094.34
2023-11-12T06:25:56.421Z,100100.34
2023-11-12T06:26:47.808Z,100095.00
2023-11-12T06:27:40.915Z,100093.16
2023-11-12T06:28:32.467Z,100099.97
2023-11-12T06:29:24.960Z,100096.53
2023-11-12T06:30:16.516Z,100102.47
2023-11-12T06:31:07.906Z,100087.91
2023-11-12T06:31:59.378Z,100094.78
2023-11-12T06:32:51.856Z,100091.25
2023-11-12T06:33:46.844Z,100094.63
2023-11-12T06:34:38.516Z,100093.69
2023-11-12T06:35:29.919Z,100103.19
2023-11-12T06:36:21.377Z,100103.19
2023-11-12T06:37:13.317Z,100105.75
2023-11-12T06:38:04.687Z,100108.31
2023-11-12T06:38:56.357Z,100105.59
2023-11-12T06:39:47.883Z,100110.72
2023-11-12T06:40:39.298Z,100110.88
2023-11-12T06:41:30.697Z,100112.56
2023-11-12T06:42:24.409Z,100113.44
2023-11-12T06:43:17.927Z,100114.25
2023-11-12T06:44:13.184Z,100115.19
2023-11-12T06:45:05.304Z,100110.97
2023-11-12T06:45:56.759Z,100116.81
2023-11-12T06:46:48.211Z,100115.03
2023-11-12T06:47:39.710Z,100115.03
2023-11-12T06:48:31.205Z,100116.16
2023-11-12T06:49:22.654Z,100115.19
2023-11-12T06:50:14.250Z,100115.19
2023-11-12T06:51:05.658Z,100118.41
2023-11-12T06:51:57.177Z,100114.03
2023-11-12T06:52:48.701Z,100120.03
2023-11-12T06:53:40.105Z,100113.09
2023-11-12T06:54:31.512Z,100118.41
2023-11-12T06:55:22.981Z,100114.19
2023-11-12T06:56:14.484Z,100122.69
2023-11-12T06:57:06.230Z,100120.13
2023-11-12T06:57:57.644Z,100124.34
2023-11-12T06:58:49.504Z,100127.66
2023-11-12T06:59:41.745Z,100125.00
2023-11-12T07:00:34.201Z,100128.47
2023-11-12T07:01:25.633Z,100125.00
2023-11-12T07:02:17.142Z,100131.88
2023-11-12T07:03:08.765Z,100131.97
2023-11-12T07:04:01.420Z,100133.59
2023-11-12T07:04:53.552Z,100133.59
2023-11-12T07:05:45.209Z,100131.81
2023-11-12T07:06:36.934Z,100131.06
2023-11-12T07:07:28.746Z,100130.88
2023-11-12T07:08:20.381Z,100126.59
2023-11-12T07:09:13.639Z,100137.75
2023-11-12T07:10:06.950Z,100126.56
2023-11-12T07:10:59.615Z,100135.09
2023-11-12T07:11:50.992Z,100140.31
2023-11-12T07:12:43.768Z,100135.25
2023-11-12T07:13:35.300Z,100139.81
2023-11-12T07:14:27.087Z,100137.97
2023-11-12T07:15:18.659Z,100133.63
2023-11-12T07:16:19.795Z,100143.19
2023-11-12T07:17:11.602Z,100144.94
2023-11-12T07:18:03.218Z,100140.63
2023-11-12T07:18:56.688Z,100141.41
2023-11-12T07:19:48.163Z,100139.81
2023-11-12T07:20:40.352Z,100139.88
2023-11-12T07:21:32.411Z,100144.34
2023-11-12T07:22:24.409Z,100137.41
2023-11-12T07:23:15.803Z,100150.22
2023-11-12T07:24:07.522Z,100140.03
2023-11-12T07:25:01.028Z,100140.81
2023-11-12T07:25:52.694Z,100147.91
2023-11-12T07:26:45.529Z,100142.75
2023-11-12T07:27:37.606Z,100138.41
2023-11-12T07:28:28.988Z,100143.53
2023-11-12T07:29:20.460Z,100148.75
2023-11-12T07:30:12.481Z,100145.38
2023-11-12T07:31:04.199Z,100149.00
2023-11-12T07:31:55.602Z,100147.38
2023-11-12T07:32:46.972Z,100151.75
2023-11-12T07:33:39.610Z,100154.41
2023-11-12T07:34:30.982Z,100156.22
2023-11-12T07:35:22.486Z,100160.56
2023-11-12T07:36:14.928Z,100156.31
2023-11-12T07:37:06.355Z,100153.00
2023-11-12T07:37:57.776Z,100158.28
2023-11-12T07:38:49.164Z,100160.03
2023-11-12T07:39:41.490Z,100156.75
2023-11-12T07:40:32.951Z,100161.91
2023-11-12T07:41:24.591Z,100157.72
2023-11-12T07:42:16.034Z,100160.53
2023-11-12T07:43:08.025Z,100160.56
2023-11-12T07:43:59.540Z,100162.28
2023-11-12T07:44:57.030Z,100165.78
2023-11-12T07:45:54.273Z,100160.72
2023-11-12T07:46:45.842Z,100159.91
2023-11-12T07:47:41.911Z,100162.72
2023-11-12T07:48:34.608Z,100167.91
2023-11-12T07:49:26.055Z,100163.72
2023-11-12T07:50:17.699Z,100166.28
2023-11-12T07:51:09.193Z,100169.84
2023-11-12T07:52:01.609Z,100171.59
2023-11-12T07:52:53.194Z,100171.75
2023-11-12T07:53:44.585Z,100169.22
2023-11-12T07:54:36.206Z,100167.56
2023-11-12T07:55:27.862Z,100167.56
2023-11-12T07:56:19.419Z,100173.63
2023-11-12T07:57:10.884Z,100172.75
2023-11-12T07:58:02.524Z,100162.47
2023-11-12T07:58:54.863Z,100172.16
2023-11-12T07:59:46.397Z,100173.94
2023-11-12T08:00:37.796Z,100162.84
2023-11-12T08:01:29.197Z,100163.66
2023-11-12T08:02:22.801Z,100165.41
2023-11-12T08:03:14.388Z,100174.88
2023-11-12T08:04:09.937Z,100174.06
2023-11-12T08:05:04.582Z,100169.13
2023-11-12T08:05:55.960Z,100172.75
2023-11-12T08:06:49.646Z,100168.50
2023-11-12T08:07:41.708Z,100175.53
2023-11-12T08:08:33.175Z,100175.59
2023-11-12T08:09:25.474Z,100185.13
2023-11-12T08:10:19.578Z,100173.38
2023-11-12T08:11:10.962Z,100173.44
2023-11-12T08:12:02.660Z,100183.72
2023-11-12T08:12:54.240Z,100182.03
2023-11-12T08:13:45.696Z,100182.09
2023-11-12T08:14:38.652Z,100186.41
2023-11-12T08:15:30.114Z,100184.78
2023-11-12T08:16:21.624Z,100187.44
2023-11-12T08:17:13.351Z,100186.63
2023-11-12T08:18:06.990Z,100185.97
2023-11-12T08:18:59.760Z,100187.59
2023-11-12T08:19:53.064Z,100187.69
2023-11-12T08:20:44.497Z,100179.34
2023-11-12T08:21:36.069Z,100179.44
2023-11-12T08:22:27.884Z,100186.38
2023-11-12T08:23:19.484Z,100187.28
2023-11-12T08:24:11.181Z,100189.97
2023-11-12T08:25:02.575Z,100190.97
2023-11-12T08:25:54.234Z,100193.63
2023-11-12T08:26:45.603Z,100188.50
2023-11-12T08:27:37.136Z,100197.25
2023-11-12T08:28:28.987Z,100193.78
2023-11-12T08:29:20.389Z,100192.03
2023-11-12T08:30:11.982Z,100194.66
2023-11-12T08:31:03.544Z,100196.44
2023-11-12T08:31:55.679Z,100197.44
2023-11-12T08:32:47.127Z,100193.19
2023-11-12T08:33:39.706Z,100190.66
2023-11-12T08:34:32.806Z,100195.88
2023-11-12T08:35:25.115Z,100188.31
2023-11-12T08:36:16.561Z,100192.03
2023-11-12T08:37:08.303Z,100197.31
2023-11-12T08:38:00.416Z,100191.38
2023-11-12T08:38:51.913Z,100197.47
2023-11-12T08:39:43.335Z,100190.69
2023-11-12T08:40:36.761Z,100197.59
2023-11-12T08:41:28.214Z,100190.81
2023-11-12T08:42:19.987Z,100193.44
2023-11-12T08:43:11.528Z,100193.44
2023-11-12T08:44:03.730Z,100187.84
2023-11-12T08:44:55.823Z,100191.50
2023-11-12T08:45:47.422Z,100186.34
2023-11-12T08:46:38.863Z,100190.75
2023-11-12T08:47:30.295Z,100197.66
2023-11-12T08:48:21.900Z,100199.47
2023-11-12T08:49:13.450Z,100194.28
2023-11-12T08:50:05.583Z,100195.09
2023-11-12T08:50:56.955Z,100200.28
2023-11-12T08:51:48.619Z,100192.78
2023-11-12T08:52:40.137Z,100203.09
2023-11-12T08:53:31.642Z,100202.38
2023-11-12T08:54:24.532Z,100199.03
2023-11-12T08:55:15.996Z,100199.97
2023-11-12T08:56:08.746Z,100199.59
2023-11-12T08:57:00.157Z,100200.53
2023-11-12T08:57:52.676Z,100198.09
2023-11-12T08:58:44.116Z,100205.91
2023-11-12T08:59:35.560Z,100204.59
2023-11-12T09:00:27.017Z,100202.03
2023-11-12T09:01:18.796Z,100195.13
2023-11-12T09:02:10.407Z,100201.38
2023-11-12T09:03:02.397Z,100200.59
2023-11-12T09:03:54.531Z,100206.56
2023-11-12T09:04:46.012Z,100207.56
2023-11-12T09:05:37.597Z,100210.97
2023-11-12T09:06:29.196Z,100212.72
2023-11-12T09:07:21.286Z,100210.28
2023-11-12T09:08:13.494Z,100207.13
2023-11-12T09:09:06.341Z,100208.28
2023-11-12T09:09:57.772Z,100212.66
2023-11-12T09:10:49.237Z,100206.69
2023-11-12T09:11:40.693Z,100211.09
2023-11-12T09:12:32.817Z,100211.13
2023-11-12T09:13:24.252Z,100203.41
2023-11-12T09:14:16.436Z,100209.56
2023-11-12T09:15:10.689Z,100212.19
2023-11-12T09:16:02.118Z,100207.03
2023-11-12T09:16:53.695Z,100208.06
2023-11-12T09:17:45.195Z,100202.25
2023-11-12T09:18:36.654Z,100209.38
2023-11-12T09:19:28.442Z,100208.50
2023-11-12T09:20:19.820Z,100209.31
2023-11-12T09:21:11.268Z,100209.38
2023-11-12T09:22:02.751Z,100206.03
2023-11-12T09:22:54.255Z,100204.34
2023-11-12T09:23:46.560Z,100208.66
2023-11-12T09:24:45.312Z,100203.50
2023-11-12T09:25:43.308Z,100202.78
2023-11-12T09:26:34.770Z,100199.38
2023-11-12T09:27:29.732Z,100195.91
2023-11-12T09:28:21.189Z,100195.09
2023-11-12T09:29:12.747Z,100192.50
2023-11-12T09:30:04.634Z,100193.44
2023-11-12T09:31:00.115Z,100199.66
2023-11-12T09:31:52.177Z,100199.53
2023-11-12T09:32:43.772Z,100194.28
2023-11-12T09:33:35.294Z,100190.00
2023-11-12T09:34:27.944Z,100191.69
2023-11-12T09:35:19.809Z,100194.34
2023-11-12T09:36:11.944Z,100202.19
2023-11-12T09:37:04.789Z,100191.94
2023-11-12T09:37:57.636Z,100196.22
2023-11-12T09:38:49.083Z,100196.25
2023-11-12T09:39:40.499Z,100193.13
2023-11-12T09:40:32.454Z,100200.03
2023-11-12T09:41:24.342Z,100191.50
2023-11-12T09:42:23.679Z,100193.94
2023-11-12T09:43:15.489Z,100191.25
2023-11-12T09:44:08.798Z,100186.22
2023-11-12T09:45:06.415Z,100190.44
2023-11-12T09:45:58.734Z,100192.19
2023-11-12T09:47:12.448Z,100187.09
2023-11-12T09:48:36.265Z,100192.41
2023-11-12T09:49:30.097Z,100194.94
2023-11-12T09:50:22.420Z,100194.88
2023-11-12T09:51:14.715Z,100192.31
2023-11-12T09:52:06.686Z,100195.22
2023-11-12T09:52:59.832Z,100184.97
2023-11-12T09:53:53.905Z,100187.63
2023-11-12T09:54:50.747Z,100191.94
2023-11-12T09:55:44.878Z,100189.72